Time;durP1;ratioP1;P1;durP2;ratioP2;P2;SDS_P1;SDS_P2;PMS_P1;PMS_P2;Temp;Humidity;BMP_temperature;BMP_pressure;BME280_temperature;BME280_humidity;BME280_pressure;Samples;Min_cycle;Max_cycle;Signal;HPM_P1;HPM_P2
2022/10/23 00:01:28;;;;;;;20.95;7.53;;;9.60;99.90;;;;;;5025100;28;20030;-77
2022/10/23 00:04:00;;;;;;;19.50;8.07;;;9.60;99.90;;;;;;5013561;28;20465;-77
2022/10/23 00:06:27;;;;;;;20.48;8.07;;;9.60;99.90;;;;;;5013252;28;20045;-77
2022/10/23 00:08:53;;;;;;;31.95;8.15;;;9.60;99.90;;;;;;5013619;28;20493;-77
2022/10/23 00:11:22;;;;;;;22.25;8.50;;;9.60;99.90;;;;;;5013593;28;20057;-78
2022/10/23 00:13:49;;;;;;;20.20;8.23;;;9.60;99.90;;;;;;5024997;28;20397;-77
2022/10/23 00:16:15;;;;;;;28.58;8.98;;;9.60;99.90;;;;;;5033336;28;20124;-77
2022/10/23 00:18:41;;;;;;;21.30;7.70;;;9.60;99.90;;;;;;5033046;28;20033;-77
2022/10/23 00:21:11;;;;;;;25.83;8.05;;;9.60;99.90;;;;;;5032923;28;20037;-77
2022/10/23 00:23:37;;;;;;;18.02;8.07;;;9.60;99.90;;;;;;5033323;28;20022;-77
2022/10/23 00:26:03;;;;;;;21.35;8.15;;;9.60;99.90;;;;;;5033064;28;20025;-77
2022/10/23 00:28:29;;;;;;;18.50;7.95;;;9.50;99.90;;;;;;5045711;28;20025;-77
2022/10/23 00:30:55;;;;;;;21.88;7.85;;;9.50;99.90;;;;;;5052875;28;20040;-77
2022/10/23 00:33:21;;;;;;;20.77;8.88;;;9.50;99.90;;;;;;5037587;28;20060;-77
2022/10/23 00:35:47;;;;;;;18.33;8.90;;;9.50;99.90;;;;;;5046016;28;20054;-77
2022/10/23 00:38:13;;;;;;;23.48;8.65;;;9.50;99.90;;;;;;5052299;28;20025;-77
2022/10/23 00:40:41;;;;;;;20.83;8.00;;;9.70;99.90;;;;;;5048052;28;20038;-77
2022/10/23 00:43:12;;;;;;;30.00;8.52;;;9.60;99.90;;;;;;5033022;28;20022;-77
2022/10/23 00:45:37;;;;;;;16.95;8.05;;;9.40;99.90;;;;;;5032823;28;20692;-77
2022/10/23 00:48:03;;;;;;;17.65;8.20;;;9.40;99.90;;;;;;5032935;28;20024;-77
2022/10/23 00:50:31;;;;;;;17.08;8.20;;;9.30;99.90;;;;;;5032687;28;20022;-77
2022/10/23 00:53:01;;;;;;;21.00;8.55;;;9.30;99.90;;;;;;5032494;28;20537;-77
2022/10/23 00:55:28;;;;;;;20.90;8.25;;;9.20;97.50;;;;;;5032795;28;20033;-77
2022/10/23 00:57:54;;;;;;;16.35;8.80;;;9.20;95.40;;;;;;5032510;28;20032;-76
2022/10/23 01:00:29;;;;;;;22.75;9.48;;;9.50;99.90;;;;;;5032517;28;20025;-77
2022/10/23 01:02:56;;;;;;;26.90;9.95;;;9.50;99.90;;;;;;5032618;28;20028;-77
2022/10/23 01:05:29;;;;;;;19.88;8.73;;;9.60;99.90;;;;;;5032570;28;20022;-77
2022/10/23 01:08:01;;;;;;;21.80;8.93;;;9.40;99.90;;;;;;5032351;28;20377;-77
2022/10/23 01:10:43;;;;;;;20.02;8.48;;;9.20;99.90;;;;;;5032665;28;20029;-77
2022/10/23 01:13:22;;;;;;;16.73;8.63;;;9.10;99.90;;;;;;5032487;28;20049;-77
2022/10/23 01:16:05;;;;;;;20.58;9.20;;;9.10;99.90;;;;;;5032531;28;20033;-77
2022/10/23 01:18:44;;;;;;;24.73;9.75;;;9.00;99.90;;;;;;5032579;28;20026;-77
2022/10/23 01:21:37;;;;;;;20.02;9.05;;;9.00;99.90;;;;;;5036322;28;20028;-77
2022/10/23 01:24:22;;;;;;;22.02;8.77;;;9.10;99.90;;;;;;5036527;28;20409;-77
2022/10/23 01:27:20;;;;;;;18.42;9.93;;;9.00;99.90;;;;;;5036358;28;20646;-77
2022/10/23 01:30:11;;;;;;;22.38;10.00;;;9.10;99.90;;;;;;5016486;28;20056;-77
2022/10/23 01:32:59;;;;;;;24.50;10.35;;;9.00;99.90;;;;;;5016193;28;20042;-77
2022/10/23 01:35:30;;;;;;;21.92;10.07;;;9.30;99.90;;;;;;5016452;28;20037;-77
2022/10/23 01:38:12;;;;;;;18.48;9.93;;;9.40;99.90;;;;;;5016497;28;20076;-77
2022/10/23 01:41:01;;;;;;;19.20;9.93;;;9.30;99.90;;;;;;5016206;28;20048;-77
2022/10/23 01:44:07;;;;;;;28.13;10.45;;;9.40;99.90;;;;;;5045549;28;21169;-77
2022/10/23 01:46:36;;;;;;;17.33;9.40;;;9.40;99.90;;;;;;5036162;28;20052;-77
2022/10/23 01:49:06;;;;;;;24.92;10.10;;;9.30;99.90;;;;;;5036011;28;20022;-77
2022/10/23 01:51:35;;;;;;;29.52;10.45;;;9.30;99.90;;;;;;5035911;28;20052;-77
2022/10/23 01:54:01;;;;;;;27.48;10.60;;;9.30;99.90;;;;;;5035750;28;20029;-77
2022/10/23 01:56:32;;;;;;;18.05;10.38;;;9.20;99.90;;;;;;5035855;28;20026;-77
2022/10/23 01:59:01;;;;;;;20.38;10.20;;;9.10;99.90;;;;;;5035802;28;20025;-77
2022/10/23 02:01:30;;;;;;;19.27;10.35;;;9.30;99.90;;;;;;5035857;28;20583;-77
2022/10/23 02:03:58;;;;;;;18.58;10.80;;;9.10;99.90;;;;;;5035648;28;20056;-77
2022/10/23 02:06:24;;;;;;;18.27;10.32;;;9.20;99.90;;;;;;5035778;28;20025;-77
2022/10/23 02:08:50;;;;;;;22.77;10.40;;;9.20;99.90;;;;;;5035690;28;20126;-77
2022/10/23 02:11:20;;;;;;;18.02;9.50;;;9.00;99.90;;;;;;5035485;28;20030;-77
2022/10/23 02:14:09;;;;;;;19.08;10.43;;;9.00;99.90;;;;;;5035371;28;20426;-77
2022/10/23 02:16:45;;;;;;;21.20;9.73;;;9.00;99.90;;;;;;5035428;28;20053;-77
2022/10/23 02:19:25;;;;;;;22.77;10.50;;;8.90;99.90;;;;;;5035412;28;20209;-77
2022/10/23 02:21:58;;;;;;;25.92;11.10;;;9.00;99.90;;;;;;5035486;28;20022;-77
2022/10/23 02:24:37;;;;;;;24.98;11.13;;;9.00;99.90;;;;;;5035307;28;20060;-77
2022/10/23 02:27:11;;;;;;;27.95;12.55;;;9.20;99.90;;;;;;5035328;28;20071;-77
2022/10/23 02:29:48;;;;;;;29.33;12.93;;;9.50;99.90;;;;;;5035018;28;20021;-77
2022/10/23 02:32:16;;;;;;;27.05;13.63;;;9.40;99.90;;;;;;5035346;28;20033;-77
2022/10/23 02:34:42;;;;;;;31.95;12.75;;;9.40;99.90;;;;;;5034920;28;20524;-78
2022/10/23 02:37:07;;;;;;;27.10;12.73;;;9.40;99.90;;;;;;5035188;28;20025;-77
2022/10/23 02:39:33;;;;;;;24.58;12.32;;;9.50;99.90;;;;;;5035221;28;20034;-77
2022/10/23 02:42:07;;;;;;;29.40;11.75;;;9.30;99.90;;;;;;5035006;28;20033;-77
2022/10/23 02:44:41;;;;;;;21.83;11.32;;;9.30;99.90;;;;;;5035340;28;20459;-77
2022/10/23 02:47:36;;;;;;;29.58;12.57;;;9.40;99.90;;;;;;5035414;28;20017;-78
2022/10/23 02:50:17;;;;;;;23.00;11.85;;;9.50;99.90;;;;;;5034901;28;20060;-77
2022/10/23 02:53:11;;;;;;;26.33;11.88;;;9.40;99.90;;;;;;5034832;28;20362;-77
2022/10/23 02:56:00;;;;;;;23.15;11.57;;;9.40;99.90;;;;;;5034829;28;20021;-77
2022/10/23 02:58:48;;;;;;;25.73;11.65;;;9.50;99.90;;;;;;5034874;28;20381;-77
2022/10/23 03:01:25;;;;;;;23.40;11.60;;;9.40;99.90;;;;;;5035051;28;20079;-78
2022/10/23 03:03:55;;;;;;;28.38;13.20;;;9.30;99.90;;;;;;5034777;28;20082;-77
2022/10/23 03:06:22;;;;;;;27.33;13.40;;;9.40;99.90;;;;;;5034530;28;20457;-77
2022/10/23 03:08:52;;;;;;;24.30;13.05;;;9.50;99.90;;;;;;5034529;28;20029;-77
2022/10/23 03:11:18;;;;;;;25.33;13.43;;;9.40;99.90;;;;;;5035007;28;20080;-77
2022/10/23 03:13:43;;;;;;;26.15;14.25;;;9.50;99.90;;;;;;5034903;28;20060;-77
2022/10/23 03:16:09;;;;;;;32.67;13.90;;;9.50;99.90;;;;;;5038982;28;20013;-77
2022/10/23 03:18:35;;;;;;;32.45;15.35;;;9.50;99.90;;;;;;5054361;28;20021;-77
2022/10/23 03:21:00;;;;;;;34.65;15.63;;;9.60;99.90;;;;;;5054311;28;20029;-77
2022/10/23 03:23:26;;;;;;;34.45;14.50;;;9.60;99.90;;;;;;5034468;28;20030;-77
2022/10/23 03:25:53;;;;;;;37.05;14.93;;;9.70;99.90;;;;;;5039191;28;20032;-77
2022/10/23 03:28:18;;;;;;;30.85;14.93;;;9.70;99.90;;;;;;5054275;28;20024;-77
2022/10/23 03:30:44;;;;;;;28.90;15.10;;;9.50;99.90;;;;;;5040646;28;20041;-77
2022/10/23 03:33:10;;;;;;;33.83;14.52;;;9.60;99.90;;;;;;5033742;28;20026;-77
2022/10/23 03:35:36;;;;;;;29.30;13.57;;;9.50;99.90;;;;;;5034132;28;20047;-77
2022/10/23 03:38:01;;;;;;;29.33;14.25;;;9.50;99.90;;;;;;5034148;28;20021;-77
2022/10/23 03:40:27;;;;;;;33.92;15.05;;;9.60;99.90;;;;;;5033962;28;20021;-77
2022/10/23 03:42:52;;;;;;;32.28;15.02;;;9.70;99.90;;;;;;5033452;28;20083;-77
2022/10/23 03:45:18;;;;;;;30.27;14.32;;;9.70;99.90;;;;;;5033871;28;20021;-77
2022/10/23 03:47:44;;;;;;;34.80;16.17;;;9.70;99.90;;;;;;5044536;28;20439;-77
2022/10/23 03:50:12;;;;;;;33.20;14.57;;;9.70;99.90;;;;;;5053766;28;20021;-77
2022/10/23 03:52:38;;;;;;;36.08;15.32;;;9.70;99.90;;;;;;5053878;28;20033;-77
2022/10/23 03:55:04;;;;;;;30.58;14.65;;;9.80;99.90;;;;;;5046590;28;20021;-77
2022/10/23 03:57:30;;;;;;;27.80;14.50;;;9.80;99.90;;;;;;5033334;28;20061;-77
2022/10/23 03:59:55;;;;;;;35.38;15.52;;;9.80;99.90;;;;;;5037633;28;20049;-78
2022/10/23 04:02:21;;;;;;;29.27;14.27;;;9.80;99.90;;;;;;5053271;28;20029;-78
2022/10/23 04:04:46;;;;;;;30.55;14.65;;;9.70;99.90;;;;;;5053560;28;20025;-77
2022/10/23 04:07:12;;;;;;;29.48;15.10;;;9.60;99.90;;;;;;5053457;28;20029;-77
2022/10/23 04:09:37;;;;;;;28.63;15.02;;;9.80;99.90;;;;;;5053351;28;20078;-77
2022/10/23 04:12:03;;;;;;;27.75;13.93;;;9.80;99.90;;;;;;5053269;28;20039;-77
2022/10/23 04:14:29;;;;;;;32.75;14.68;;;9.80;99.90;;;;;;5050790;28;20588;-77
2022/10/23 04:16:55;;;;;;;27.73;14.45;;;9.70;99.90;;;;;;5013880;28;20021;-77
2022/10/23 04:19:21;;;;;;;31.70;14.90;;;9.80;99.90;;;;;;5013655;28;20026;-77
2022/10/23 04:21:46;;;;;;;31.60;14.43;;;9.80;99.90;;;;;;5034924;28;20033;-77
2022/10/23 04:24:12;;;;;;;33.55;15.05;;;9.80;99.90;;;;;;5053122;28;20032;-78
2022/10/23 04:26:38;;;;;;;30.00;14.73;;;9.80;99.90;;;;;;5053158;28;20405;-77
2022/10/23 04:29:03;;;;;;;26.60;14.00;;;9.90;99.90;;;;;;5053087;28;20408;-77
2022/10/23 04:31:29;;;;;;;28.90;14.07;;;9.90;99.90;;;;;;5044014;28;20521;-77
2022/10/23 04:33:54;;;;;;;30.60;13.82;;;9.90;99.90;;;;;;5032383;28;20055;-77
2022/10/23 04:36:20;;;;;;;32.42;14.07;;;9.90;99.90;;;;;;5033023;28;20025;-77
2022/10/23 04:38:46;;;;;;;27.88;13.75;;;9.90;99.90;;;;;;5050062;28;20105;-77
2022/10/23 04:41:12;;;;;;;26.02;14.18;;;9.90;99.90;;;;;;5042212;28;20080;-77
2022/10/23 04:43:38;;;;;;;22.58;12.93;;;9.90;99.90;;;;;;5032921;28;20026;-77
2022/10/23 04:46:04;;;;;;;22.95;12.90;;;9.80;99.90;;;;;;5033100;28;20022;-78
2022/10/23 04:48:30;;;;;;;23.08;12.82;;;9.80;99.90;;;;;;5033087;28;20084;-77
2022/10/23 04:50:58;;;;;;;24.80;13.30;;;9.70;99.90;;;;;;5033011;28;20461;-78
2022/10/23 04:53:24;;;;;;;28.13;13.07;;;9.70;99.90;;;;;;5032727;28;20013;-77
2022/10/23 04:55:51;;;;;;;22.77;12.98;;;9.70;99.90;;;;;;5032827;28;20112;-78
2022/10/23 04:58:17;;;;;;;25.75;13.18;;;9.70;99.90;;;;;;5032968;28;20093;-78
2022/10/23 05:00:43;;;;;;;23.08;12.98;;;9.60;99.90;;;;;;5032822;28;20053;-77
2022/10/23 05:03:09;;;;;;;28.05;13.40;;;9.60;99.90;;;;;;5036684;28;20463;-77
2022/10/23 05:05:34;;;;;;;22.95;13.13;;;9.70;99.90;;;;;;5052342;28;20025;-78
2022/10/23 05:08:00;;;;;;;26.02;13.30;;;9.60;99.90;;;;;;5052506;28;20053;-77
2022/10/23 05:10:25;;;;;;;24.58;12.70;;;9.70;99.90;;;;;;5052556;28;20040;-78
2022/10/23 05:12:51;;;;;;;23.80;12.57;;;9.60;99.90;;;;;;5052459;28;20021;-77
2022/10/23 05:15:16;;;;;;;26.92;12.95;;;9.50;99.90;;;;;;5052457;28;20049;-78
2022/10/23 05:17:45;;;;;;;21.52;11.77;;;9.50;99.90;;;;;;5048186;28;20017;-78
2022/10/23 05:20:18;;;;;;;25.67;12.68;;;9.60;99.90;;;;;;5032474;28;20040;-77
2022/10/23 05:22:47;;;;;;;24.52;13.20;;;9.60;99.90;;;;;;5032147;28;20049;-78
2022/10/23 05:25:13;;;;;;;22.27;12.70;;;9.60;99.90;;;;;;5032861;28;20025;-78
2022/10/23 05:27:38;;;;;;;24.98;13.00;;;9.50;99.90;;;;;;5032606;28;20661;-78
2022/10/23 05:30:05;;;;;;;21.60;13.07;;;9.50;99.90;;;;;;5032971;28;20021;-77
2022/10/23 05:32:32;;;;;;;19.88;12.02;;;9.60;99.90;;;;;;5032503;28;20025;-78
2022/10/23 05:35:00;;;;;;;24.73;12.55;;;9.50;99.90;;;;;;5032387;28;20063;-78
2022/10/23 05:37:26;;;;;;;23.52;12.85;;;9.50;99.90;;;;;;5032669;28;20081;-77
2022/10/23 05:39:51;;;;;;;21.42;11.27;;;9.40;99.90;;;;;;5032563;28;20480;-77
2022/10/23 05:42:17;;;;;;;23.02;11.80;;;9.40;99.90;;;;;;5032392;28;20029;-77
2022/10/23 05:44:42;;;;;;;21.83;12.57;;;9.50;99.90;;;;;;5032324;28;20021;-78
2022/10/23 05:47:08;;;;;;;20.75;12.30;;;9.50;99.90;;;;;;5024942;28;20132;-78
2022/10/23 05:49:34;;;;;;;26.30;12.90;;;9.60;99.90;;;;;;5032210;28;20100;-77
2022/10/23 05:51:59;;;;;;;31.77;13.05;;;9.70;99.90;;;;;;5032281;28;20037;-77
2022/10/23 05:54:26;;;;;;;26.30;13.82;;;9.80;99.90;;;;;;5026561;28;20030;-77
2022/10/23 05:56:51;;;;;;;23.88;12.32;;;9.80;99.90;;;;;;5013404;28;20025;-78
2022/10/23 05:59:17;;;;;;;25.65;13.50;;;9.70;99.90;;;;;;5032150;28;20017;-78
2022/10/23 06:01:43;;;;;;;26.35;13.23;;;9.80;99.90;;;;;;5037123;28;20159;-78
2022/10/23 06:04:08;;;;;;;28.73;13.95;;;9.80;99.90;;;;;;5051854;28;20032;-78
2022/10/23 06:06:35;;;;;;;25.20;13.02;;;9.80;99.90;;;;;;5054669;28;20022;-77
2022/10/23 06:09:02;;;;;;;31.05;15.40;;;9.80;99.90;;;;;;5035599;28;20017;-77
2022/10/23 06:11:27;;;;;;;27.05;14.38;;;9.90;99.90;;;;;;5035742;28;20033;-77
2022/10/23 06:13:53;;;;;;;27.05;13.77;;;9.90;99.90;;;;;;5035750;28;20420;-77
2022/10/23 06:16:21;;;;;;;26.15;14.57;;;9.90;99.90;;;;;;5035812;28;20373;-77
2022/10/23 06:18:47;;;;;;;29.48;12.98;;;10.00;99.90;;;;;;5035489;28;20620;-77
2022/10/23 06:21:14;;;;;;;35.50;15.27;;;9.90;99.90;;;;;;5035406;28;20037;-77
2022/10/23 06:23:42;;;;;;;29.63;13.93;;;10.10;99.90;;;;;;5035304;28;20022;-77
2022/10/23 06:26:10;;;;;;;28.63;14.82;;;10.20;99.90;;;;;;5025964;28;20535;-77
2022/10/23 06:28:35;;;;;;;29.45;14.07;;;10.10;99.90;;;;;;5048599;28;20025;-77
2022/10/23 06:31:06;;;;;;;27.52;14.40;;;10.20;99.90;;;;;;5035469;28;20025;-77
2022/10/23 06:33:31;;;;;;;;;;;10.10;99.90;;;;;;5032932;28;20097;-77
2022/10/23 06:35:57;;;;;;;25.85;13.70;;;10.20;99.90;;;;;;5041768;28;20004;-77
2022/10/23 06:38:22;;;;;;;27.15;13.95;;;10.30;99.90;;;;;;5032160;28;20040;-77
2022/10/23 06:40:55;;;;;;;29.77;14.27;;;10.30;99.90;;;;;;5038829;28;20066;-77
2022/10/23 06:43:21;;;;;;;31.35;15.23;;;10.30;99.90;;;;;;5034703;28;20029;-77
2022/10/23 06:45:47;;;;;;;31.35;16.17;;;10.40;99.90;;;;;;5032742;28;20022;-77
2022/10/23 06:48:13;;;;;;;29.55;15.73;;;10.40;99.90;;;;;;5030311;28;20104;-77
2022/10/23 06:50:39;;;;;;;31.30;15.70;;;10.50;99.90;;;;;;5033755;28;20490;-77
2022/10/23 06:53:05;;;;;;;29.27;15.10;;;10.60;99.90;;;;;;5035580;28;20032;-77
2022/10/23 06:55:32;;;;;;;33.58;16.35;;;10.70;99.90;;;;;;5028366;28;20366;-77
2022/10/23 06:57:58;;;;;;;34.40;16.90;;;10.70;99.90;;;;;;5033340;28;20041;-78
2022/10/23 07:00:23;;;;;;;31.02;14.98;;;10.90;99.90;;;;;;5032519;28;20038;-78
2022/10/23 07:02:51;;;;;;;34.92;15.93;;;11.00;99.90;;;;;;5031800;28;20021;-78
2022/10/23 07:05:17;;;;;;;36.15;16.70;;;11.00;99.90;;;;;;5024609;28;20029;-78
2022/10/23 07:07:43;;;;;;;34.92;14.60;;;11.10;99.90;;;;;;5014882;28;20509;-77
2022/10/23 07:10:09;;;;;;;30.05;15.60;;;11.10;99.90;;;;;;5017851;28;20092;-78
2022/10/23 07:12:34;;;;;;;33.15;15.77;;;11.20;99.90;;;;;;5029022;28;20518;-78
2022/10/23 07:15:00;;;;;;;32.95;15.32;;;11.40;99.90;;;;;;5024521;28;20080;-78
2022/10/23 07:17:27;;;;;;;33.33;16.25;;;11.40;99.90;;;;;;5021706;28;20377;-78
2022/10/23 07:19:53;;;;;;;34.33;15.95;;;11.50;99.90;;;;;;5023393;28;20211;-77
2022/10/23 07:22:19;;;;;;;34.50;16.80;;;11.50;99.90;;;;;;5019871;28;20436;-78
2022/10/23 07:24:44;;;;;;;30.92;14.30;;;11.50;99.90;;;;;;5024372;28;20542;-77
2022/10/23 07:27:11;;;;;;;31.38;15.82;;;11.50;99.90;;;;;;5024151;28;20048;-78
2022/10/23 07:29:37;;;;;;;32.85;16.33;;;11.50;99.90;;;;;;5024180;28;20477;-77
2022/10/23 07:32:03;;;;;;;27.55;15.05;;;11.60;99.90;;;;;;5029588;28;20482;-77
2022/10/23 07:34:30;;;;;;;32.80;17.00;;;11.60;99.90;;;;;;5016745;28;20037;-78
2022/10/23 07:36:56;;;;;;;34.42;16.45;;;11.70;99.90;;;;;;5016370;28;20028;-78
2022/10/23 07:39:22;;;;;;;29.88;15.82;;;11.70;99.90;;;;;;5014270;28;20021;-77
2022/10/23 07:41:48;;;;;;;31.77;15.68;;;11.80;99.90;;;;;;5018729;28;20036;-77
2022/10/23 07:44:14;;;;;;;31.90;16.13;;;11.80;99.90;;;;;;5015823;28;20021;-77
2022/10/23 07:46:40;;;;;;;27.92;14.18;;;11.90;99.90;;;;;;5013915;28;20029;-77
2022/10/23 07:49:06;;;;;;;29.80;15.63;;;12.00;99.90;;;;;;5019955;28;20017;-77
2022/10/23 07:51:31;;;;;;;31.10;15.18;;;12.00;99.90;;;;;;5028304;28;20038;-77
2022/10/23 07:53:57;;;;;;;31.75;15.30;;;12.00;99.90;;;;;;5019152;28;20022;-77
2022/10/23 07:56:25;;;;;;;26.48;15.40;;;12.10;99.90;;;;;;5020652;28;20032;-77
2022/10/23 07:58:53;;;;;;;29.35;14.05;;;12.10;99.90;;;;;;5019241;28;20033;-78
2022/10/23 08:01:35;;;;;;;25.50;13.35;;;12.20;99.90;;;;;;5017571;28;20037;-78
2022/10/23 08:04:01;;;;;;;27.02;13.70;;;12.20;99.90;;;;;;5024628;28;20400;-78
2022/10/23 08:06:26;;;;;;;27.38;14.30;;;12.30;99.90;;;;;;5017686;28;20025;-77
2022/10/23 08:08:52;;;;;;;28.85;13.43;;;12.40;99.90;;;;;;5015564;28;20473;-78
2022/10/23 08:11:24;;;;;;;26.70;12.88;;;12.50;99.90;;;;;;5026653;28;20081;-78
2022/10/23 08:13:51;;;;;;;22.58;12.93;;;12.50;91.90;;;;;;5017183;28;20104;-78
2022/10/23 08:16:17;;;;;;;25.90;13.27;;;12.70;43.10;;;;;;5027705;28;20021;-78
2022/10/23 08:18:44;;;;;;;23.33;13.15;;;12.70;26.10;;;;;;5033739;28;20032;-76
2022/10/23 08:21:10;;;;;;;24.25;12.77;;;12.70;1.00;;;;;;5029636;28;20025;-76
2022/10/23 08:23:36;;;;;;;18.85;12.90;;;12.80;1.00;;;;;;5030639;28;20095;-77
2022/10/23 08:26:04;;;;;;;23.83;12.95;;;13.00;1.00;;;;;;5025050;28;20021;-77
2022/10/23 08:28:31;;;;;;;26.60;13.32;;;13.10;1.00;;;;;;5030172;28;20021;-77
2022/10/23 08:30:56;;;;;;;21.77;12.05;;;13.00;99.90;;;;;;5026522;28;20080;-77
2022/10/23 08:33:22;;;;;;;22.88;12.73;;;13.20;99.90;;;;;;5026319;28;20029;-77
2022/10/23 08:35:48;;;;;;;29.77;13.32;;;13.20;99.90;;;;;;5042367;28;20049;-77
2022/10/23 08:38:13;;;;;;;27.17;11.52;;;13.30;99.90;;;;;;5030435;28;20477;-77
2022/10/23 08:40:47;;;;;;;22.42;12.13;;;13.40;99.90;;;;;;5029636;28;20045;-77
2022/10/23 08:43:27;;;;;;;24.13;12.48;;;13.30;99.90;;;;;;5031174;28;20030;-77
2022/10/23 08:45:58;;;;;;;21.58;11.80;;;13.40;99.90;;;;;;5021995;28;20063;-77
2022/10/23 08:48:24;;;;;;;17.50;10.35;;;13.40;99.90;;;;;;5031667;28;20095;-77
2022/10/23 08:50:54;;;;;;;25.25;12.15;;;13.60;99.90;;;;;;5029807;28;20029;-77
2022/10/23 08:53:30;;;;;;;17.65;11.32;;;13.70;99.90;;;;;;5032666;28;20037;-77
2022/10/23 08:56:01;;;;;;;20.63;12.10;;;13.80;99.90;;;;;;5027376;28;20168;-77
2022/10/23 08:58:36;;;;;;;18.13;11.82;;;13.90;99.90;;;;;;5027370;28;20541;-77
2022/10/23 09:01:26;;;;;;;18.77;11.52;;;13.80;99.90;;;;;;5019289;28;20033;-77
2022/10/23 09:03:52;;;;;;;17.42;10.40;;;13.90;99.90;;;;;;5035548;28;20068;-77
2022/10/23 09:06:34;;;;;;;19.30;11.68;;;14.00;99.90;;;;;;5029570;28;20542;-77
2022/10/23 09:09:19;;;;;;;20.33;11.38;;;14.10;99.90;;;;;;5029568;28;20041;-77
2022/10/23 09:12:20;;;;;;;19.67;10.90;;;14.10;99.90;;;;;;5027201;28;20029;-77
2022/10/23 09:15:14;;;;;;;15.35;10.40;;;14.10;99.90;;;;;;5029371;28;20033;-77
2022/10/23 09:17:42;;;;;;;17.65;10.65;;;14.10;99.90;;;;;;5025521;28;20025;-78
2022/10/23 09:20:31;;;;;;;21.70;11.10;;;14.10;99.90;;;;;;5028878;28;20055;-77
2022/10/23 09:23:18;;;;;;;18.50;10.53;;;14.20;99.90;;;;;;5028996;28;20464;-77
2022/10/23 09:25:45;;;;;;;15.63;9.98;;;14.30;99.90;;;;;;5028879;28;20033;-78
2022/10/23 09:28:44;;;;;;;17.88;10.48;;;14.40;99.90;;;;;;5026854;28;20140;-78
2022/10/23 09:31:11;;;;;;;16.88;9.48;;;14.60;99.90;;;;;;5029834;28;20050;-77
2022/10/23 09:33:38;;;;;;;15.75;9.77;;;14.70;99.90;;;;;;5022082;28;20064;-77
2022/10/23 09:36:05;;;;;;;17.00;10.00;;;14.80;99.90;;;;;;5030216;28;20077;-77
2022/10/23 09:38:46;;;;;;;15.75;9.18;;;14.90;99.90;;;;;;5029440;28;20473;-77
2022/10/23 09:41:21;;;;;;;19.08;10.27;;;15.00;99.90;;;;;;5032884;28;20443;-77
2022/10/23 09:43:58;;;;;;;16.00;10.07;;;15.10;99.90;;;;;;5032690;28;20108;-77
2022/10/23 09:46:24;;;;;;;16.27;10.52;;;15.00;99.90;;;;;;5034145;28;20028;-78
2022/10/23 09:48:57;;;;;;;13.23;8.88;;;15.00;99.90;;;;;;5033542;28;20112;-77
2022/10/23 09:51:23;;;;;;;18.52;10.40;;;15.20;99.90;;;;;;5033563;28;20017;-77
2022/10/23 09:53:56;;;;;;;16.05;10.07;;;15.10;99.90;;;;;;5036748;28;20440;-77
2022/10/23 09:56:38;;;;;;;12.90;9.00;;;15.00;99.90;;;;;;5035912;28;20361;-78
2022/10/23 09:59:10;;;;;;;17.05;9.43;;;15.00;99.90;;;;;;5047329;28;20021;-78
2022/10/23 10:01:47;;;;;;;16.00;8.73;;;15.10;99.90;;;;;;5056541;28;20479;-78
2022/10/23 10:04:12;;;;;;;15.52;9.02;;;15.20;99.90;;;;;;5056409;28;20420;-77
2022/10/23 10:06:38;;;;;;;13.13;8.95;;;15.20;99.90;;;;;;5056266;28;20083;-77
2022/10/23 10:09:12;;;;;;;13.52;8.55;;;15.30;99.90;;;;;;5036127;28;20072;-77
2022/10/23 10:11:54;;;;;;;12.52;8.82;;;15.20;99.90;;;;;;5037192;28;20052;-77
2022/10/23 10:14:28;;;;;;;14.50;8.68;;;15.30;99.90;;;;;;5029702;28;20492;-77
2022/10/23 10:17:01;;;;;;;22.08;11.95;;;15.60;99.90;;;;;;5036686;28;20026;-77
2022/10/23 10:19:57;;;;;;;16.80;10.15;;;15.90;99.90;;;;;;5037370;28;20461;-77
2022/10/23 10:22:38;;;;;;;16.52;9.27;;;16.10;99.90;;;;;;5047190;28;20076;-77
2022/10/23 10:25:35;;;;;;;13.88;8.60;;;16.10;99.90;;;;;;5035016;28;20030;-78
2022/10/23 10:28:26;;;;;;;14.07;8.30;;;16.10;99.90;;;;;;5031330;28;20037;-77
2022/10/23 10:31:10;;;;;;;11.43;8.20;;;16.20;99.90;;;;;;5042011;28;20520;-77
2022/10/23 10:34:09;;;;;;;11.25;7.50;;;16.30;99.90;;;;;;5028177;28;20100;-78
2022/10/23 10:36:58;;;;;;;12.52;8.13;;;16.50;99.90;;;;;;5033493;28;20532;-78
2022/10/23 10:39:39;;;;;;;13.13;8.65;;;16.50;99.90;;;;;;5034090;28;20037;-78
2022/10/23 10:42:29;;;;;;;14.90;9.10;;;16.60;99.90;;;;;;5033811;28;20485;-78
2022/10/23 10:45:17;;;;;;;14.05;8.60;;;16.80;99.90;;;;;;5033546;28;20033;-78
2022/10/23 10:47:51;;;;;;;10.05;7.85;;;16.70;99.90;;;;;;5031789;28;20037;-78
2022/10/23 10:50:24;;;;;;;12.88;7.95;;;16.80;99.90;;;;;;5037351;28;20025;-77
2022/10/23 10:52:55;;;;;;;10.63;8.05;;;16.70;99.90;;;;;;5030681;28;20048;-77
2022/10/23 10:55:27;;;;;;;12.70;7.65;;;16.60;99.90;;;;;;5032759;28;20029;-78
2022/10/23 10:57:57;;;;;;;11.93;8.10;;;16.60;99.90;;;;;;5033821;28;20026;-78
2022/10/23 11:00:24;;;;;;;11.32;7.07;;;16.50;99.90;;;;;;5034539;28;20021;-78
2022/10/23 11:03:01;;;;;;;11.57;7.60;;;16.50;99.90;;;;;;5031939;28;20046;-78
2022/10/23 11:05:32;;;;;;;12.35;7.57;;;16.50;99.90;;;;;;5035961;28;20021;-78
2022/10/23 11:08:15;;;;;;;13.45;6.97;;;16.50;99.90;;;;;;5034128;28;20059;-78
2022/10/23 11:10:45;;;;;;;11.35;6.85;;;16.40;99.90;;;;;;5034063;28;20061;-78
2022/10/23 11:13:39;;;;;;;10.52;6.93;;;16.40;99.90;;;;;;5031525;28;20072;-78
2022/10/23 11:16:34;;;;;;;9.93;6.28;;;16.20;99.90;;;;;;5034636;28;20025;-78
2022/10/23 11:19:22;;;;;;;9.23;6.15;;;16.30;99.90;;;;;;5033626;28;20112;-78
2022/10/23 11:21:50;;;;;;;14.00;6.57;;;16.30;99.90;;;;;;5033600;28;20030;-77
2022/10/23 11:24:53;;;;;;;8.57;6.32;;;16.30;99.90;;;;;;5033904;28;20024;-78
2022/10/23 11:27:51;;;;;;;8.75;6.78;;;16.40;99.90;;;;;;5031568;28;20550;-78
2022/10/23 11:30:35;;;;;;;11.02;6.75;;;16.20;99.90;;;;;;5030533;28;20072;-78
2022/10/23 11:33:38;;;;;;;10.32;7.13;;;16.40;99.90;;;;;;5030070;28;20029;-78
2022/10/23 11:36:04;;;;;;;9.88;6.47;;;16.50;99.90;;;;;;5028703;28;20442;-78
2022/10/23 11:38:33;;;;;;;7.50;5.60;;;16.50;99.90;;;;;;5036058;28;20029;-78
2022/10/23 11:41:02;;;;;;;7.88;6.03;;;16.50;99.90;;;;;;5033052;28;20096;-78
2022/10/23 11:43:52;;;;;;;10.75;6.03;;;16.40;99.90;;;;;;5033198;28;20018;-77
2022/10/23 11:46:26;;;;;;;12.23;6.25;;;16.30;99.90;;;;;;5036205;28;20021;-78
2022/10/23 11:48:53;;;;;;;8.10;5.45;;;16.20;99.90;;;;;;5031237;28;20029;-78
2022/10/23 11:51:28;;;;;;;7.40;6.30;;;16.30;99.90;;;;;;5019915;28;20477;-78
2022/10/23 11:54:10;;;;;;;9.98;5.90;;;16.30;99.90;;;;;;5017430;28;20026;-77
2022/10/23 11:57:07;;;;;;;8.82;5.78;;;16.30;99.90;;;;;;5013140;28;20025;-78
2022/10/23 11:59:38;;;;;;;12.65;6.13;;;16.40;99.90;;;;;;5020156;28;20033;-77
2022/10/23 12:02:36;;;;;;;8.73;5.65;;;16.30;99.90;;;;;;5017858;28;20030;-77
2022/10/23 12:05:06;;;;;;;8.93;5.03;;;16.20;99.90;;;;;;5017513;28;20049;-77
2022/10/23 12:07:40;;;;;;;8.20;5.68;;;16.20;99.90;;;;;;5025440;28;20028;-77
2022/10/23 12:10:24;;;;;;;8.30;5.32;;;16.20;99.90;;;;;;5033322;28;20033;-78
2022/10/23 12:12:58;;;;;;;8.30;4.47;;;16.20;99.90;;;;;;5033704;28;20041;-78
2022/10/23 12:15:25;;;;;;;8.45;4.57;;;16.00;99.90;;;;;;5035524;28;20020;-78
2022/10/23 12:17:53;;;;;;;6.50;4.78;;;16.00;99.90;;;;;;5035658;28;20067;-78
2022/10/23 12:20:39;;;;;;;8.75;4.47;;;16.10;99.90;;;;;;5032545;28;20021;-78
2022/10/23 12:23:04;;;;;;;6.53;4.53;;;16.20;99.90;;;;;;5032251;28;20038;-78
2022/10/23 12:25:50;;;;;;;9.90;5.75;;;16.30;99.90;;;;;;5043812;28;20116;-78
2022/10/23 12:28:34;;;;;;;8.07;4.88;;;16.30;99.90;;;;;;5031694;28;20033;-78
2022/10/23 12:31:24;;;;;;;7.25;4.78;;;16.20;99.90;;;;;;5032341;28;20029;-78
2022/10/23 12:34:01;;;;;;;11.32;5.88;;;16.30;99.90;;;;;;5028922;28;20041;-78
2022/10/23 12:37:11;;;;;;;7.10;4.75;;;16.20;99.90;;;;;;5032615;28;20104;-78
2022/10/23 12:39:39;;;;;;;8.60;5.00;;;16.20;99.90;;;;;;5023998;28;20099;-77
2022/10/23 12:42:14;;;;;;;6.03;4.45;;;16.10;99.90;;;;;;5037214;28;20033;-78
2022/10/23 12:44:39;;;;;;;7.95;4.35;;;16.40;99.90;;;;;;5040485;28;20040;-78
2022/10/23 12:47:05;;;;;;;7.13;4.38;;;16.40;99.90;;;;;;5036456;28;20029;-78
2022/10/23 12:49:33;;;;;;;6.07;3.97;;;16.30;99.90;;;;;;5036181;28;20481;-78
2022/10/23 12:52:02;;;;;;;6.97;4.50;;;16.40;99.90;;;;;;5032188;28;20485;-78
2022/10/23 12:54:30;;;;;;;5.20;3.45;;;16.30;99.90;;;;;;5039637;28;20415;-78
2022/10/23 12:56:56;;;;;;;8.95;4.68;;;16.30;99.90;;;;;;5024267;28;20113;-77
2022/10/23 12:59:25;;;;;;;6.20;3.63;;;16.10;99.90;;;;;;5027518;28;20057;-78
2022/10/23 13:01:52;;;;;;;8.30;4.38;;;16.20;99.90;;;;;;5020931;28;20073;-78